createdAt,value
2019-05-20T00:00:50.160Z,82.65
2019-05-20T00:03:16.006Z,82.32
2019-05-20T00:05:42.166Z,82.28
2019-05-20T00:08:08.063Z,82.14
2019-05-20T00:10:33.928Z,82.77
2019-05-20T00:12:59.790Z,82.05
2019-05-20T00:15:25.652Z,82.40
2019-05-20T00:17:51.517Z,82.47
2019-05-20T00:20:17.446Z,82.32
2019-05-20T00:22:43.306Z,82.61
2019-05-20T00:25:09.259Z,81.76
2019-05-20T00:27:35.221Z,82.82
2019-05-20T00:30:01.298Z,82.29
2019-05-20T00:32:40.193Z,81.92
2019-05-20T00:34:54.903Z,82.19
2019-05-20T00:37:20.778Z,80.94
2019-05-20T00:39:46.649Z,81.62
2019-05-20T00:42:12.517Z,81.58
2019-05-20T00:44:38.378Z,81.91
2019-05-20T00:47:04.229Z,81.94
2019-05-20T00:49:30.084Z,81.64
2019-05-20T00:51:56.050Z,81.73
2019-05-20T00:54:22.112Z,81.84
2019-05-20T00:56:50.848Z,81.71
2019-05-20T00:59:16.681Z,81.59
2019-05-20T01:01:42.564Z,81.74
2019-05-20T01:04:08.419Z,81.89
2019-05-20T01:06:34.295Z,81.84
2019-05-20T01:09:00.159Z,80.75
2019-05-20T01:11:26.018Z,81.20
2019-05-20T01:13:51.903Z,81.14
2019-05-20T01:16:17.768Z,81.82
2019-05-20T01:18:43.632Z,81.85
2019-05-20T01:21:09.558Z,81.72
2019-05-20T01:23:35.473Z,82.18
2019-05-20T01:26:01.337Z,82.18
2019-05-20T01:28:27.199Z,82.31
2019-05-20T01:30:53.051Z,82.60
2019-05-20T01:33:18.920Z,82.65
2019-05-20T01:35:44.786Z,82.50
2019-05-20T01:38:10.657Z,82.71
2019-05-20T01:40:36.543Z,82.35
2019-05-20T01:43:02.406Z,82.35
2019-05-20T01:45:28.270Z,82.92
2019-05-20T01:47:54.139Z,83.34
2019-05-20T01:50:20.209Z,82.73
2019-05-20T01:52:46.064Z,82.70
2019-05-20T01:55:12.127Z,82.69
2019-05-20T01:57:38.023Z,82.91
2019-05-20T02:00:06.274Z,82.51
2019-05-20T02:02:32.127Z,82.35
2019-05-20T02:04:57.988Z,82.50
2019-05-20T02:07:23.850Z,82.67
2019-05-20T02:09:49.699Z,82.64
2019-05-20T02:12:15.568Z,82.07
2019-05-20T02:14:49.149Z,81.90
2019-05-20T02:17:15.043Z,81.99
2019-05-20T02:19:40.903Z,80.89
2019-05-20T02:22:06.795Z,81.08
2019-05-20T02:24:32.640Z,80.70
2019-05-20T02:26:58.533Z,80.40
2019-05-20T02:29:24.375Z,81.07
2019-05-20T02:31:50.245Z,81.05
2019-05-20T02:34:16.117Z,81.53
2019-05-20T02:36:41.979Z,81.01
2019-05-20T02:39:07.879Z,80.70
2019-05-20T02:41:33.834Z,80.75
2019-05-20T02:43:59.694Z,81.29
2019-05-20T02:46:25.575Z,80.52
2019-05-20T02:48:51.419Z,80.79
2019-05-20T02:51:20.056Z,80.60
2019-05-20T02:53:46.030Z,80.63
2019-05-20T02:56:11.989Z,80.46
2019-05-20T02:58:37.878Z,80.38
2019-05-20T03:01:03.727Z,80.45
2019-05-20T03:03:30.420Z,80.66
2019-05-20T03:05:56.277Z,80.57
2019-05-20T03:08:22.142Z,80.94
2019-05-20T03:10:48.002Z,80.50
2019-05-20T03:13:13.897Z,81.28
2019-05-20T03:15:39.753Z,80.80
2019-05-20T03:18:05.614Z,81.17
2019-05-20T03:20:31.476Z,81.23
2019-05-20T03:22:57.333Z,81.10
2019-05-20T03:25:23.217Z,80.70
2019-05-20T03:27:49.099Z,81.09
2019-05-20T03:30:15.143Z,80.83
2019-05-20T03:32:41.029Z,81.24
2019-05-20T03:35:07.282Z,81.75
2019-05-20T03:37:33.111Z,81.73
2019-05-20T03:39:58.976Z,81.31
2019-05-20T03:42:24.836Z,81.51
2019-05-20T03:44:50.991Z,81.53
2019-05-20T03:47:16.875Z,81.37
2019-05-20T03:49:42.745Z,81.20
2019-05-20T03:52:08.595Z,81.42
2019-05-20T03:54:34.450Z,80.96
2019-05-20T03:57:00.313Z,81.44
2019-05-20T03:59:26.160Z,81.63
2019-05-20T04:01:52.009Z,82.09
2019-05-20T04:04:17.906Z,81.97
2019-05-20T04:06:43.757Z,81.94
2019-05-20T04:09:09.616Z,81.92
2019-05-20T04:11:35.482Z,81.39
2019-05-20T04:14:01.329Z,81.49
2019-05-20T04:16:27.180Z,81.79
2019-05-20T04:18:54.092Z,81.24
2019-05-20T04:21:20.445Z,81.59
2019-05-20T04:23:46.529Z,81.65
2019-05-20T04:26:12.514Z,82.27
2019-05-20T04:28:38.377Z,82.26
2019-05-20T04:31:04.242Z,82.15
2019-05-20T04:33:30.105Z,81.85
2019-05-20T04:35:55.971Z,81.89
2019-05-20T04:38:22.041Z,81.56
2019-05-20T04:40:47.906Z,81.74
2019-05-20T04:43:14.184Z,81.76
2019-05-20T04:45:40.438Z,81.76
2019-05-20T04:48:06.307Z,81.70
2019-05-20T04:50:32.159Z,81.70
2019-05-20T04:52:58.017Z,81.80
2019-05-20T04:55:23.881Z,82.12
2019-05-20T04:57:49.761Z,82.47
2019-05-20T05:00:19.492Z,81.88
2019-05-20T05:02:45.354Z,82.04
2019-05-20T05:05:11.566Z,81.97
2019-05-20T05:07:37.436Z,81.87
2019-05-20T05:10:06.594Z,81.79
2019-05-20T05:12:32.446Z,81.79
2019-05-20T05:14:58.334Z,81.79
2019-05-20T05:17:24.295Z,81.70
2019-05-20T05:19:50.588Z,81.87
2019-05-20T05:22:16.658Z,81.60
2019-05-20T05:24:42.528Z,82.08
2019-05-20T05:27:08.377Z,81.93
2019-05-20T05:29:34.244Z,81.68
2019-05-20T05:32:00.123Z,81.38
2019-05-20T05:34:26.003Z,80.74
2019-05-20T05:36:51.853Z,81.04
2019-05-20T05:39:17.722Z,81.89
2019-05-20T05:41:43.579Z,82.02
2019-05-20T05:44:09.450Z,82.17
2019-05-20T05:46:35.323Z,81.50
2019-05-20T05:49:01.180Z,81.20
2019-05-20T05:51:27.055Z,80.77
2019-05-20T05:53:52.930Z,81.68
2019-05-20T05:56:18.786Z,81.33
2019-05-20T05:58:44.665Z,81.25
2019-05-20T06:01:10.526Z,81.67
2019-05-20T06:03:36.478Z,81.68
2019-05-20T06:06:11.923Z,81.36
2019-05-20T06:08:30.177Z,80.49
2019-05-20T06:10:56.051Z,81.01
2019-05-20T06:13:21.949Z,80.93
2019-05-20T06:15:47.857Z,81.32
2019-05-20T06:18:13.717Z,81.06
2019-05-20T06:20:39.592Z,81.72
2019-05-20T06:23:05.461Z,81.95
2019-05-20T06:25:31.315Z,81.71
2019-05-20T06:27:57.173Z,81.24
2019-05-20T06:30:26.856Z,81.76
2019-05-20T06:32:52.721Z,81.15
2019-05-20T06:35:18.780Z,80.90
2019-05-20T06:37:49.356Z,81.65
2019-05-20T06:40:15.677Z,81.69
2019-05-20T06:42:41.636Z,81.73
2019-05-20T06:45:07.988Z,81.33
2019-05-20T06:47:34.342Z,81.38
2019-05-20T06:50:00.206Z,81.71
2019-05-20T06:52:35.258Z,81.75
2019-05-20T06:54:53.917Z,82.11
2019-05-20T06:57:23.751Z,81.10
2019-05-20T06:59:48.904Z,81.22
2019-05-20T07:02:14.768Z,81.19
2019-05-20T07:04:40.643Z,81.21
2019-05-20T07:07:19.883Z,80.96
2019-05-20T07:09:34.328Z,80.70
2019-05-20T07:12:00.199Z,80.90
2019-05-20T07:14:26.170Z,80.91
2019-05-20T07:16:52.027Z,81.07
2019-05-20T07:19:17.886Z,81.07
2019-05-20T07:21:43.822Z,80.74
2019-05-20T07:24:09.687Z,81.22
2019-05-20T07:26:35.645Z,80.45
2019-05-20T07:29:01.705Z,80.56
2019-05-20T07:31:27.570Z,80.73
2019-05-20T07:33:53.430Z,79.78
2019-05-20T07:36:19.291Z,80.02
2019-05-20T07:38:45.177Z,80.40
2019-05-20T07:41:11.129Z,80.87
2019-05-20T07:43:37.156Z,81.16
2019-05-20T07:46:03.735Z,80.90
2019-05-20T07:48:29.737Z,80.85
2019-05-20T07:50:56.461Z,81.13
2019-05-20T07:53:23.118Z,80.81
2019-05-20T07:55:58.568Z,80.75
2019-05-20T07:58:25.589Z,80.19
2019-05-20T08:00:51.417Z,80.20
2019-05-20T08:03:17.273Z,80.30
2019-05-20T08:05:43.167Z,80.49
2019-05-20T08:08:09.019Z,80.53
2019-05-20T08:10:34.901Z,80.50
2019-05-20T08:13:00.769Z,80.82
2019-05-20T08:15:26.603Z,80.90
2019-05-20T08:17:52.572Z,80.98
2019-05-20T08:20:20.477Z,81.34
2019-05-20T08:22:46.356Z,81.45
2019-05-20T08:25:12.602Z,81.73
2019-05-20T08:27:38.505Z,82.39
2019-05-20T08:30:06.472Z,82.42
2019-05-20T08:32:32.431Z,82.48
2019-05-20T08:34:58.323Z,82.32
2019-05-20T08:37:24.166Z,82.44
2019-05-20T08:39:50.069Z,81.81
2019-05-20T08:42:15.981Z,81.28
2019-05-20T08:44:41.774Z,81.28
2019-05-20T08:47:07.657Z,81.39
2019-05-20T08:49:33.549Z,80.80
2019-05-20T08:51:59.398Z,80.79
2019-05-20T08:54:25.268Z,81.07
2019-05-20T08:56:51.124Z,80.83
2019-05-20T08:59:16.999Z,80.74
2019-05-20T09:01:42.889Z,80.94
2019-05-20T09:04:08.734Z,81.07
2019-05-20T09:06:34.646Z,80.85
2019-05-20T09:09:00.521Z,80.56
2019-05-20T09:11:26.374Z,81.14
2019-05-20T09:13:52.283Z,81.53
2019-05-20T09:16:18.135Z,81.63
2019-05-20T09:18:43.983Z,81.51
2019-05-20T09:21:10.157Z,81.60
2019-05-20T09:23:36.446Z,82.01
2019-05-20T09:26:02.374Z,81.71
2019-05-20T09:28:28.277Z,81.92
2019-05-20T09:30:54.439Z,82.09
2019-05-20T09:33:21.179Z,81.36
2019-05-20T09:35:47.072Z,81.28
2019-05-20T09:38:20.135Z,80.93
2019-05-20T09:40:46.228Z,80.57
2019-05-20T09:43:12.379Z,80.39
2019-05-20T09:45:38.467Z,80.02
2019-05-20T09:48:05.529Z,80.17
2019-05-20T09:50:31.594Z,80.54
2019-05-20T09:52:57.441Z,80.16
2019-05-20T09:55:23.325Z,80.59
2019-05-20T09:57:49.186Z,80.05
2019-05-20T10:00:16.278Z,80.05
2019-05-20T10:02:42.152Z,80.05
2019-05-20T10:05:08.273Z,79.72
2019-05-20T10:07:34.359Z,79.64
2019-05-20T10:10:00.215Z,80.30
2019-05-20T10:12:44.529Z,79.84
2019-05-20T10:14:53.860Z,79.58
2019-05-20T10:17:20.126Z,79.33
2019-05-20T10:19:45.993Z,79.19
2019-05-20T10:22:12.126Z,79.12
2019-05-20T10:24:38.070Z,79.72
2019-05-20T10:27:05.077Z,79.78
2019-05-20T10:29:30.989Z,80.25
2019-05-20T10:31:56.849Z,79.81
2019-05-20T10:34:22.742Z,80.17
2019-05-20T10:36:48.583Z,80.04
2019-05-20T10:39:14.442Z,79.81
2019-05-20T10:41:40.313Z,80.34
2019-05-20T10:44:06.177Z,80.01
2019-05-20T10:46:32.040Z,79.54
2019-05-20T10:48:58.112Z,79.42
2019-05-20T10:51:23.979Z,79.73
2019-05-20T10:53:49.825Z,80.08
2019-05-20T10:56:15.765Z,80.12
2019-05-20T10:58:41.627Z,79.87
2019-05-20T11:01:08.354Z,79.66
2019-05-20T11:03:34.230Z,79.74
2019-05-20T11:06:00.085Z,79.42
2019-05-20T11:08:25.942Z,79.87
2019-05-20T11:10:51.860Z,79.79
2019-05-20T11:13:17.775Z,79.88
2019-05-20T11:15:43.680Z,79.68
2019-05-20T11:18:09.571Z,79.77
2019-05-20T11:20:35.421Z,79.61
2019-05-20T11:23:01.557Z,79.69
2019-05-20T11:25:27.451Z,79.44
2019-05-20T11:27:53.304Z,79.08
2019-05-20T11:30:21.178Z,78.84
2019-05-20T11:32:47.029Z,78.29
2019-05-20T11:35:13.800Z,77.78
2019-05-20T11:37:39.688Z,77.61
2019-05-20T11:40:06.858Z,78.13
2019-05-20T11:42:32.757Z,78.20
2019-05-20T11:44:58.629Z,78.52
2019-05-20T11:47:24.504Z,78.34
2019-05-20T11:49:50.375Z,78.21
2019-05-20T11:52:16.241Z,78.21
2019-05-20T11:54:42.116Z,78.15
2019-05-20T11:57:07.965Z,78.18
2019-05-20T11:59:33.845Z,77.70
2019-05-20T12:02:03.723Z,78.06
2019-05-20T12:04:27.479Z,78.32
2019-05-20T12:06:53.346Z,78.49
2019-05-20T12:09:19.201Z,78.34
2019-05-20T12:11:45.061Z,78.50
2019-05-20T12:14:10.926Z,78.65
2019-05-20T12:16:36.770Z,78.75
2019-05-20T12:19:02.823Z,78.91
2019-05-20T12:21:28.719Z,78.64
2019-05-20T12:23:54.536Z,78.90
2019-05-20T12:26:22.569Z,78.84
2019-05-20T12:28:48.316Z,78.69
2019-05-20T12:31:14.178Z,78.93
2019-05-20T12:33:40.044Z,78.40
2019-05-20T12:36:05.913Z,78.71
2019-05-20T12:38:31.792Z,78.35
2019-05-20T12:40:57.648Z,78.34
2019-05-20T12:43:23.535Z,77.41
2019-05-20T12:45:49.399Z,77.03
2019-05-20T12:48:15.305Z,76.95
2019-05-20T12:50:41.139Z,76.91
2019-05-20T12:53:06.994Z,76.69
2019-05-20T12:55:32.846Z,76.47
2019-05-20T12:57:58.709Z,76.26
2019-05-20T13:00:24.622Z,75.99
2019-05-20T13:02:51.346Z,75.98
2019-05-20T13:05:17.205Z,75.68
2019-05-20T13:07:43.095Z,75.65
2019-05-20T13:10:26.840Z,75.65
2019-05-20T13:12:37.387Z,75.43
2019-05-20T13:15:05.723Z,75.61
2019-05-20T13:17:32.183Z,75.90
2019-05-20T13:19:59.524Z,75.75
2019-05-20T13:22:25.395Z,76.51
2019-05-20T13:24:51.271Z,75.97
2019-05-20T13:27:17.137Z,75.96
2019-05-20T13:29:43.040Z,76.34
2019-05-20T13:32:08.955Z,76.37
2019-05-20T13:34:34.814Z,76.35
2019-05-20T13:37:00.844Z,76.48
2019-05-20T13:39:26.775Z,76.45
2019-05-20T13:41:52.691Z,76.09
2019-05-20T13:44:18.565Z,76.42
2019-05-20T13:46:44.451Z,76.17
2019-05-20T13:49:10.355Z,76.44
2019-05-20T13:51:38.523Z,76.32
2019-05-20T13:54:04.035Z,76.43
2019-05-20T13:56:29.897Z,76.70
2019-05-20T13:58:55.791Z,76.84
2019-05-20T14:01:21.709Z,76.73
2019-05-20T14:03:48.481Z,76.61
2019-05-20T14:06:14.349Z,76.84
2019-05-20T14:08:40.244Z,76.83
2019-05-20T14:11:06.106Z,77.00
2019-05-20T14:13:31.990Z,76.98
2019-05-20T14:15:57.908Z,76.92
2019-05-20T14:18:26.687Z,76.90
2019-05-20T14:20:52.580Z,77.05
2019-05-20T14:23:18.437Z,77.08
2019-05-20T14:25:44.293Z,76.93
2019-05-20T14:28:10.164Z,77.01
2019-05-20T14:30:36.025Z,77.01
2019-05-20T14:33:02.088Z,77.14
2019-05-20T14:35:28.083Z,77.22
2019-05-20T14:37:53.987Z,77.54
2019-05-20T14:40:19.865Z,76.96
2019-05-20T14:42:45.737Z,76.46
2019-05-20T14:45:11.710Z,76.66
2019-05-20T14:47:37.613Z,76.63
2019-05-20T14:50:05.498Z,75.81
2019-05-20T14:52:31.352Z,76.27
2019-05-20T14:54:57.236Z,76.26
2019-05-20T14:57:23.098Z,75.82
2019-05-20T14:59:48.973Z,76.13
2019-05-20T15:02:14.898Z,75.95
2019-05-20T15:04:40.761Z,76.16
2019-05-20T15:07:06.627Z,76.08
2019-05-20T15:09:32.499Z,76.47
2019-05-20T15:11:58.368Z,76.17
2019-05-20T15:14:24.302Z,76.37
2019-05-20T15:16:50.153Z,76.46
2019-05-20T15:19:16.097Z,76.43
2019-05-20T15:21:41.979Z,76.06
2019-05-20T15:24:07.847Z,76.34
2019-05-20T15:26:33.710Z,76.67
2019-05-20T15:28:59.575Z,76.75
2019-05-20T15:31:25.437Z,76.72
2019-05-20T15:33:51.298Z,76.73
2019-05-20T15:36:17.169Z,76.46
2019-05-20T15:38:43.014Z,76.55
2019-05-20T15:41:08.937Z,76.25
2019-05-20T15:43:34.901Z,76.65
2019-05-20T15:46:00.771Z,76.39
2019-05-20T15:48:26.687Z,76.62
2019-05-20T15:50:52.552Z,76.93
2019-05-20T15:53:18.419Z,77.02
2019-05-20T15:55:44.343Z,77.21
2019-05-20T15:58:10.197Z,77.34
2019-05-20T16:00:36.058Z,77.51
2019-05-20T16:03:01.950Z,77.05
2019-05-20T16:05:28.683Z,77.30
2019-05-20T16:07:54.570Z,77.36
2019-05-20T16:10:20.427Z,77.81
2019-05-20T16:12:46.274Z,78.01
2019-05-20T16:15:12.360Z,78.03
2019-05-20T16:17:38.245Z,77.85
2019-05-20T16:20:07.195Z,78.00
2019-05-20T16:22:33.252Z,77.73
2019-05-20T16:24:59.121Z,77.73
2019-05-20T16:27:24.982Z,77.92
2019-05-20T16:30:05.328Z,77.96
2019-05-20T16:32:18.685Z,77.99
2019-05-20T16:34:44.536Z,78.21
2019-05-20T16:37:10.438Z,78.77
2019-05-20T16:39:36.364Z,78.55
2019-05-20T16:42:02.169Z,78.73
2019-05-20T16:44:28.220Z,78.48
2019-05-20T16:46:54.104Z,78.73
2019-05-20T16:49:19.980Z,78.94
2019-05-20T16:51:45.828Z,77.78
2019-05-20T16:54:11.699Z,77.62
2019-05-20T16:56:37.568Z,77.24
2019-05-20T16:59:03.459Z,77.00
2019-05-20T17:01:29.323Z,77.94
2019-05-20T17:03:55.179Z,79.08
2019-05-20T17:06:21.153Z,78.74
2019-05-20T17:08:47.911Z,79.10
2019-05-20T17:11:13.766Z,78.31
2019-05-20T17:13:39.640Z,79.41
2019-05-20T17:16:05.501Z,78.85
2019-05-20T17:18:31.362Z,79.01
2019-05-20T17:20:57.319Z,79.25
2019-05-20T17:23:23.176Z,78.86
2019-05-20T17:25:50.793Z,78.80
2019-05-20T17:28:16.928Z,78.88
2019-05-20T17:30:45.238Z,78.68
2019-05-20T17:33:10.702Z,78.35
2019-05-20T17:35:36.775Z,78.20
2019-05-20T17:38:03.031Z,78.13
2019-05-20T17:40:28.905Z,78.68
2019-05-20T17:42:54.772Z,78.41
2019-05-20T17:45:20.843Z,78.96
2019-05-20T17:47:46.708Z,77.94
2019-05-20T17:50:14.178Z,77.67
2019-05-20T17:52:40.058Z,78.09
2019-05-20T17:55:06.451Z,78.15
2019-05-20T17:57:32.376Z,77.22
2019-05-20T17:59:58.249Z,77.14
2019-05-20T18:02:24.139Z,77.70
2019-05-20T18:04:49.989Z,77.88
2019-05-20T18:07:15.867Z,77.81
2019-05-20T18:09:43.656Z,77.93
2019-05-20T18:12:09.526Z,78.19
2019-05-20T18:14:35.382Z,79.12
2019-05-20T18:17:01.257Z,78.04
2019-05-20T18:19:27.211Z,78.73
2019-05-20T18:21:53.150Z,79.03
2019-05-20T18:24:19.023Z,79.30
2019-05-20T18:26:44.882Z,78.45
2019-05-20T18:29:10.762Z,78.48
2019-05-20T18:31:36.627Z,78.10
2019-05-20T18:34:02.793Z,78.57
2019-05-20T18:36:28.656Z,78.46
2019-05-20T18:38:54.522Z,78.62
2019-05-20T18:41:20.381Z,78.49
2019-05-20T18:43:46.274Z,78.37
2019-05-20T18:46:12.137Z,78.44
2019-05-20T18:48:38.031Z,79.11
2019-05-20T18:51:03.910Z,78.99
2019-05-20T18:53:29.762Z,79.31
2019-05-20T18:55:55.630Z,79.57
2019-05-20T18:58:21.532Z,79.72
2019-05-20T19:00:47.397Z,80.01
2019-05-20T19:03:13.261Z,79.70
2019-05-20T19:05:39.194Z,79.93
2019-05-20T19:08:05.046Z,79.80
2019-05-20T19:10:30.936Z,80.93
2019-05-20T19:12:56.817Z,80.47
2019-05-20T19:15:22.883Z,80.52
2019-05-20T19:17:48.880Z,80.76
2019-05-20T19:20:14.757Z,80.92
2019-05-20T19:22:40.715Z,81.49
2019-05-20T19:25:07.109Z,82.04
2019-05-20T19:27:33.063Z,81.57
2019-05-20T19:29:59.031Z,81.39
2019-05-20T19:32:25.147Z,81.70
2019-05-20T19:34:50.981Z,81.08
2019-05-20T19:37:16.842Z,80.88
2019-05-20T19:39:42.700Z,81.68
2019-05-20T19:42:08.567Z,82.59
2019-05-20T19:44:34.416Z,81.89
2019-05-20T19:47:00.301Z,82.40
2019-05-20T19:49:26.147Z,82.93
2019-05-20T19:51:52.009Z,82.59
2019-05-20T19:54:17.883Z,82.64
2019-05-20T19:56:43.739Z,83.45
2019-05-20T19:59:09.627Z,83.51
2019-05-20T20:01:35.486Z,83.63
2019-05-20T20:04:01.353Z,82.86
2019-05-20T20:06:27.228Z,83.94
2019-05-20T20:08:53.090Z,83.65
2019-05-20T20:11:18.979Z,83.66
2019-05-20T20:13:44.854Z,83.76
2019-05-20T20:16:10.819Z,83.13
2019-05-20T20:18:36.645Z,83.02
2019-05-20T20:21:02.499Z,83.33
2019-05-20T20:23:28.357Z,83.48
2019-05-20T20:25:54.211Z,83.46
2019-05-20T20:28:20.100Z,83.60
2019-05-20T20:30:45.978Z,84.49
2019-05-20T20:33:11.814Z,84.29
2019-05-20T20:35:38.553Z,84.43
2019-05-20T20:38:04.502Z,85.07
2019-05-20T20:40:30.459Z,84.78
2019-05-20T20:42:56.330Z,84.88
2019-05-20T20:45:22.214Z,85.06
2019-05-20T20:47:48.078Z,84.87
2019-05-20T20:50:14.592Z,85.27
2019-05-20T20:52:40.452Z,85.39
2019-05-20T20:55:06.628Z,85.57
2019-05-20T20:57:32.531Z,85.23
2019-05-20T20:59:58.389Z,86.03
2019-05-20T21:02:24.260Z,85.20
2019-05-20T21:04:50.214Z,85.52
2019-05-20T21:07:16.084Z,85.74
2019-05-20T21:09:41.942Z,85.29
2019-05-20T21:12:07.839Z,85.29
2019-05-20T21:14:33.708Z,85.14
2019-05-20T21:16:59.550Z,86.36
2019-05-20T21:19:25.438Z,86.57
2019-05-20T21:21:51.319Z,86.34
2019-05-20T21:24:17.154Z,86.61
2019-05-20T21:26:43.017Z,86.71
2019-05-20T21:29:08.885Z,86.17
2019-05-20T21:31:34.758Z,86.68
2019-05-20T21:34:00.608Z,86.31
2019-05-20T21:36:26.648Z,86.79
2019-05-20T21:38:52.551Z,87.45
2019-05-20T21:41:18.432Z,87.05
2019-05-20T21:43:44.279Z,86.47
2019-05-20T21:46:10.154Z,86.87
2019-05-20T21:48:36.010Z,87.56
2019-05-20T21:51:01.886Z,87.22
2019-05-20T21:53:27.748Z,87.56
2019-05-20T21:55:53.612Z,87.27
2019-05-20T21:58:19.469Z,87.70
2019-05-20T22:00:47.335Z,87.89
2019-05-20T22:03:23.852Z,87.54
2019-05-20T22:05:41.064Z,87.18
2019-05-20T22:08:06.916Z,87.35
2019-05-20T22:10:32.778Z,86.88
2019-05-20T22:12:58.638Z,86.92
2019-05-20T22:15:24.501Z,100.00
2019-05-20T22:17:50.365Z,88.02
2019-05-20T22:20:16.233Z,87.02
2019-05-20T22:22:43.993Z,88.16
2019-05-20T22:25:10.159Z,88.00
2019-05-20T22:27:36.024Z,88.50
2019-05-20T22:30:04.379Z,88.14
2019-05-20T22:32:30.248Z,88.27
2019-05-20T22:34:56.093Z,88.69
2019-05-20T22:37:21.962Z,88.46
2019-05-20T22:39:47.830Z,89.01
2019-05-20T22:42:13.789Z,88.88
2019-05-20T22:44:39.652Z,88.50
2019-05-20T22:47:05.520Z,88.41
2019-05-20T22:49:31.390Z,88.63
2019-05-20T22:51:57.260Z,88.51
2019-05-20T22:54:23.119Z,88.60
2019-05-20T22:56:48.996Z,88.99
2019-05-20T22:59:14.839Z,88.99
2019-05-20T23:01:40.705Z,88.73
2019-05-20T23:04:06.555Z,88.54
2019-05-20T23:06:32.411Z,88.18
2019-05-20T23:08:58.284Z,88.35
2019-05-20T23:11:24.139Z,88.75
2019-05-20T23:13:50.006Z,89.16
2019-05-20T23:16:15.898Z,88.81
2019-05-20T23:18:41.765Z,88.72
2019-05-20T23:21:07.625Z,88.69
2019-05-20T23:23:33.486Z,89.09
2019-05-20T23:25:59.361Z,88.70
2019-05-20T23:28:25.222Z,88.37
2019-05-20T23:30:51.076Z,88.65
2019-05-20T23:33:16.925Z,88.72
2019-05-20T23:35:42.798Z,88.73
2019-05-20T23:38:08.682Z,88.50
2019-05-20T23:40:34.535Z,88.82
2019-05-20T23:43:00.399Z,89.13
2019-05-20T23:45:26.251Z,88.80
2019-05-20T23:47:52.109Z,89.06
2019-05-20T23:50:17.963Z,88.89
2019-05-20T23:52:43.843Z,89.15
2019-05-20T23:55:10.714Z,89.54
2019-05-20T23:57:36.586Z,89.48
